Barnhart, Texas
Current Conditions -  °F | °C
As of 4:35 AM on Saturday 22 Nov 2014 (Local Time) from KOZA Reporting Station
Overcast Overcast  
Wind Chill: 64°   Ceiling: 1100
Heat Index: 64°   Visibility: 10mi
Dew Point: 61°   Wind: 14mph
Humidity: 88%   Direction: 160°SSE
Pressure: 29.96"   Gusts: NA
Location:  31.13°N, 101.17°W
Report Text: KOZA 221035Z AUTO 16012KT 10SM OVC011 18/16 A2996 RMK AO2 LTG DSNT N
Loading
Personal Weather Stations






























Interactive Weather Map New forecast layout! Learn more

10-Day Weather Forecast

Advertisements
Track Severe Weather on mobile